sensor_id;sensor_type;location;lat;lon;timestamp;P1;durP1;ratioP1;P2;durP2;ratioP2
77775;SDS011;66965;43.328;6.668;2023-06-22T00:01:27;22.30;;;6.60;;
77775;SDS011;66965;43.328;6.668;2023-06-22T00:03:52;25.15;;;5.53;;
77775;SDS011;66965;43.328;6.668;2023-06-22T00:06:18;28.10;;;6.82;;
77775;SDS011;66965;43.328;6.668;2023-06-22T00:08:43;22.08;;;5.82;;
77775;SDS011;66965;43.328;6.668;2023-06-22T00:11:09;22.75;;;7.15;;
77775;SDS011;66965;43.328;6.668;2023-06-22T00:13:35;17.05;;;4.88;;
77775;SDS011;66965;43.328;6.668;2023-06-22T00:16:00;16.60;;;5.60;;
77775;SDS011;66965;43.328;6.668;2023-06-22T00:18:26;15.32;;;5.82;;
77775;SDS011;66965;43.328;6.668;2023-06-22T00:20:53;29.48;;;6.13;;
77775;SDS011;66965;43.328;6.668;2023-06-22T00:23:23;23.33;;;6.07;;
77775;SDS011;66965;43.328;6.668;2023-06-22T00:28:14;23.50;;;6.07;;
77775;SDS011;66965;43.328;6.668;2023-06-22T00:30:40;24.88;;;5.75;;
77775;SDS011;66965;43.328;6.668;2023-06-22T00:33:05;19.67;;;5.30;;
77775;SDS011;66965;43.328;6.668;2023-06-22T00:35:32;18.52;;;6.10;;
77775;SDS011;66965;43.328;6.668;2023-06-22T00:37:59;18.25;;;5.38;;
77775;SDS011;66965;43.328;6.668;2023-06-22T00:40:32;20.15;;;7.40;;
77775;SDS011;66965;43.328;6.668;2023-06-22T00:42:58;17.90;;;5.30;;
77775;SDS011;66965;43.328;6.668;2023-06-22T00:45:24;23.02;;;4.93;;
77775;SDS011;66965;43.328;6.668;2023-06-22T00:47:54;21.13;;;5.20;;
77775;SDS011;66965;43.328;6.668;2023-06-22T00:50:22;17.58;;;4.82;;
77775;SDS011;66965;43.328;6.668;2023-06-22T00:52:52;18.02;;;4.95;;
77775;SDS011;66965;43.328;6.668;2023-06-22T00:55:21;19.67;;;5.38;;
77775;SDS011;66965;43.328;6.668;2023-06-22T00:57:47;23.25;;;5.55;;
77775;SDS011;66965;43.328;6.668;2023-06-22T01:00:13;23.42;;;5.90;;
77775;SDS011;66965;43.328;6.668;2023-06-22T01:02:41;19.17;;;5.43;;
77775;SDS011;66965;43.328;6.668;2023-06-22T01:05:10;25.42;;;6.60;;
77775;SDS011;66965;43.328;6.668;2023-06-22T01:07:42;22.95;;;5.32;;
77775;SDS011;66965;43.328;6.668;2023-06-22T01:12:48;30.50;;;6.85;;
77775;SDS011;66965;43.328;6.668;2023-06-22T01:18:03;30.88;;;6.88;;
77775;SDS011;66965;43.328;6.668;2023-06-22T01:20:30;21.65;;;5.25;;
77775;SDS011;66965;43.328;6.668;2023-06-22T01:23:05;18.95;;;4.65;;
77775;SDS011;66965;43.328;6.668;2023-06-22T01:25:47;33.85;;;7.65;;
77775;SDS011;66965;43.328;6.668;2023-06-22T01:31:08;20.75;;;4.63;;
77775;SDS011;66965;43.328;6.668;2023-06-22T01:33:41;25.73;;;5.55;;
77775;SDS011;66965;43.328;6.668;2023-06-22T01:36:07;36.50;;;8.00;;
77775;SDS011;66965;43.328;6.668;2023-06-22T01:38:34;24.20;;;6.45;;
77775;SDS011;66965;43.328;6.668;2023-06-22T01:41:02;40.35;;;10.50;;
77775;SDS011;66965;43.328;6.668;2023-06-22T01:43:28;33.42;;;8.75;;
77775;SDS011;66965;43.328;6.668;2023-06-22T01:45:54;23.02;;;5.78;;
77775;SDS011;66965;43.328;6.668;2023-06-22T01:48:21;27.88;;;6.57;;
77775;SDS011;66965;43.328;6.668;2023-06-22T01:53:12;28.10;;;6.73;;
77775;SDS011;66965;43.328;6.668;2023-06-22T01:55:38;23.55;;;5.82;;
77775;SDS011;66965;43.328;6.668;2023-06-22T01:58:03;13.60;;;4.88;;
77775;SDS011;66965;43.328;6.668;2023-06-22T02:00:31;21.88;;;5.40;;
77775;SDS011;66965;43.328;6.668;2023-06-22T02:03:03;21.38;;;5.75;;
77775;SDS011;66965;43.328;6.668;2023-06-22T02:08:21;26.70;;;6.75;;
77775;SDS011;66965;43.328;6.668;2023-06-22T02:10:50;29.67;;;6.32;;
77775;SDS011;66965;43.328;6.668;2023-06-22T02:13:17;21.42;;;5.68;;
77775;SDS011;66965;43.328;6.668;2023-06-22T02:15:44;19.20;;;5.53;;
77775;SDS011;66965;43.328;6.668;2023-06-22T02:18:11;22.67;;;5.65;;
77775;SDS011;66965;43.328;6.668;2023-06-22T02:20:38;21.50;;;5.53;;
77775;SDS011;66965;43.328;6.668;2023-06-22T02:23:04;27.38;;;7.68;;
77775;SDS011;66965;43.328;6.668;2023-06-22T02:25:31;20.50;;;6.68;;
77775;SDS011;66965;43.328;6.668;2023-06-22T02:27:57;18.08;;;5.75;;
77775;SDS011;66965;43.328;6.668;2023-06-22T02:30:22;25.10;;;6.57;;
77775;SDS011;66965;43.328;6.668;2023-06-22T02:32:47;20.73;;;5.80;;
77775;SDS011;66965;43.328;6.668;2023-06-22T02:35:13;28.42;;;8.25;;
77775;SDS011;66965;43.328;6.668;2023-06-22T02:37:39;26.30;;;5.63;;
77775;SDS011;66965;43.328;6.668;2023-06-22T02:40:06;18.98;;;6.50;;
77775;SDS011;66965;43.328;6.668;2023-06-22T02:42:34;25.52;;;6.47;;
77775;SDS011;66965;43.328;6.668;2023-06-22T02:44:59;30.23;;;6.20;;
77775;SDS011;66965;43.328;6.668;2023-06-22T02:47:25;20.35;;;5.05;;
77775;SDS011;66965;43.328;6.668;2023-06-22T02:49:51;24.17;;;5.95;;
77775;SDS011;66965;43.328;6.668;2023-06-22T02:52:16;27.00;;;5.93;;
77775;SDS011;66965;43.328;6.668;2023-06-22T02:54:42;25.75;;;7.82;;
77775;SDS011;66965;43.328;6.668;2023-06-22T02:57:10;26.02;;;5.68;;
77775;SDS011;66965;43.328;6.668;2023-06-22T02:59:38;16.77;;;5.15;;
77775;SDS011;66965;43.328;6.668;2023-06-22T03:02:07;24.48;;;6.20;;
77775;SDS011;66965;43.328;6.668;2023-06-22T03:04:33;31.52;;;8.73;;
77775;SDS011;66965;43.328;6.668;2023-06-22T03:09:26;22.65;;;5.95;;
77775;SDS011;66965;43.328;6.668;2023-06-22T03:11:53;15.43;;;5.40;;
77775;SDS011;66965;43.328;6.668;2023-06-22T03:14:21;23.70;;;5.25;;
77775;SDS011;66965;43.328;6.668;2023-06-22T03:16:47;16.30;;;4.28;;
77775;SDS011;66965;43.328;6.668;2023-06-22T03:19:12;17.40;;;4.55;;
77775;SDS011;66965;43.328;6.668;2023-06-22T03:21:38;14.73;;;5.30;;
77775;SDS011;66965;43.328;6.668;2023-06-22T03:24:04;24.00;;;4.97;;
77775;SDS011;66965;43.328;6.668;2023-06-22T03:26:30;32.50;;;6.97;;
77775;SDS011;66965;43.328;6.668;2023-06-22T03:28:56;26.63;;;5.68;;
77775;SDS011;66965;43.328;6.668;2023-06-22T03:31:21;22.58;;;5.53;;
77775;SDS011;66965;43.328;6.668;2023-06-22T03:33:48;33.00;;;7.55;;
77775;SDS011;66965;43.328;6.668;2023-06-22T03:36:14;19.17;;;6.35;;
77775;SDS011;66965;43.328;6.668;2023-06-22T03:38:44;19.67;;;5.72;;
77775;SDS011;66965;43.328;6.668;2023-06-22T03:41:11;27.27;;;6.70;;
77775;SDS011;66965;43.328;6.668;2023-06-22T03:43:36;22.65;;;4.65;;
77775;SDS011;66965;43.328;6.668;2023-06-22T03:46:02;20.58;;;5.60;;
77775;SDS011;66965;43.328;6.668;2023-06-22T03:48:27;18.92;;;6.50;;
77775;SDS011;66965;43.328;6.668;2023-06-22T03:50:53;26.85;;;6.68;;
77775;SDS011;66965;43.328;6.668;2023-06-22T03:53:18;32.72;;;6.65;;
77775;SDS011;66965;43.328;6.668;2023-06-22T03:55:50;36.20;;;7.18;;
77775;SDS011;66965;43.328;6.668;2023-06-22T03:58:17;26.48;;;6.38;;
77775;SDS011;66965;43.328;6.668;2023-06-22T04:00:45;29.10;;;7.80;;
77775;SDS011;66965;43.328;6.668;2023-06-22T04:03:11;21.27;;;4.72;;
77775;SDS011;66965;43.328;6.668;2023-06-22T04:05:38;25.45;;;7.82;;
77775;SDS011;66965;43.328;6.668;2023-06-22T04:08:04;29.08;;;7.32;;
77775;SDS011;66965;43.328;6.668;2023-06-22T04:10:30;26.27;;;7.43;;
77775;SDS011;66965;43.328;6.668;2023-06-22T04:12:56;22.63;;;5.03;;
77775;SDS011;66965;43.328;6.668;2023-06-22T04:15:21;22.73;;;7.20;;
77775;SDS011;66965;43.328;6.668;2023-06-22T04:17:47;40.00;;;9.05;;
77775;SDS011;66965;43.328;6.668;2023-06-22T04:20:12;34.03;;;8.15;;
77775;SDS011;66965;43.328;6.668;2023-06-22T04:22:38;31.23;;;7.93;;
77775;SDS011;66965;43.328;6.668;2023-06-22T04:25:03;40.08;;;8.27;;
77775;SDS011;66965;43.328;6.668;2023-06-22T04:27:32;35.00;;;7.88;;
77775;SDS011;66965;43.328;6.668;2023-06-22T04:30:02;32.25;;;8.82;;
77775;SDS011;66965;43.328;6.668;2023-06-22T04:32:33;27.90;;;7.22;;
77775;SDS011;66965;43.328;6.668;2023-06-22T04:35:01;26.52;;;7.55;;
77775;SDS011;66965;43.328;6.668;2023-06-22T04:37:27;46.70;;;10.82;;
77775;SDS011;66965;43.328;6.668;2023-06-22T04:39:52;33.05;;;8.23;;
77775;SDS011;66965;43.328;6.668;2023-06-22T04:42:18;23.67;;;8.77;;
77775;SDS011;66965;43.328;6.668;2023-06-22T04:44:43;30.23;;;7.78;;
77775;SDS011;66965;43.328;6.668;2023-06-22T04:47:08;33.67;;;6.03;;
77775;SDS011;66965;43.328;6.668;2023-06-22T04:49:34;23.90;;;5.90;;
77775;SDS011;66965;43.328;6.668;2023-06-22T04:52:06;34.60;;;6.75;;
77775;SDS011;66965;43.328;6.668;2023-06-22T04:54:32;27.75;;;7.10;;
77775;SDS011;66965;43.328;6.668;2023-06-22T04:57:00;27.73;;;7.30;;
77775;SDS011;66965;43.328;6.668;2023-06-22T04:59:27;30.50;;;7.75;;
77775;SDS011;66965;43.328;6.668;2023-06-22T05:01:58;24.67;;;7.10;;
77775;SDS011;66965;43.328;6.668;2023-06-22T05:04:25;36.45;;;7.72;;
77775;SDS011;66965;43.328;6.668;2023-06-22T05:06:53;25.00;;;6.78;;
77775;SDS011;66965;43.328;6.668;2023-06-22T05:09:19;26.25;;;6.55;;
77775;SDS011;66965;43.328;6.668;2023-06-22T05:11:45;21.55;;;5.63;;
77775;SDS011;66965;43.328;6.668;2023-06-22T05:14:12;24.23;;;8.73;;
77775;SDS011;66965;43.328;6.668;2023-06-22T05:16:37;17.77;;;6.13;;
77775;SDS011;66965;43.328;6.668;2023-06-22T05:19:03;22.55;;;7.28;;
77775;SDS011;66965;43.328;6.668;2023-06-22T05:21:29;37.13;;;8.02;;
77775;SDS011;66965;43.328;6.668;2023-06-22T05:23:56;29.15;;;7.65;;
77775;SDS011;66965;43.328;6.668;2023-06-22T05:26:25;23.92;;;7.43;;
77775;SDS011;66965;43.328;6.668;2023-06-22T05:28:51;18.70;;;5.60;;
77775;SDS011;66965;43.328;6.668;2023-06-22T05:31:18;30.05;;;7.50;;
77775;SDS011;66965;43.328;6.668;2023-06-22T05:33:47;21.55;;;5.90;;
77775;SDS011;66965;43.328;6.668;2023-06-22T05:36:14;30.15;;;7.13;;
77775;SDS011;66965;43.328;6.668;2023-06-22T05:38:40;22.15;;;5.43;;
77775;SDS011;66965;43.328;6.668;2023-06-22T05:41:06;21.90;;;5.20;;
77775;SDS011;66965;43.328;6.668;2023-06-22T05:43:32;32.03;;;7.07;;
77775;SDS011;66965;43.328;6.668;2023-06-22T05:45:59;17.13;;;5.45;;
77775;SDS011;66965;43.328;6.668;2023-06-22T05:48:26;24.75;;;7.47;;
77775;SDS011;66965;43.328;6.668;2023-06-22T05:50:52;20.05;;;5.93;;
77775;SDS011;66965;43.328;6.668;2023-06-22T05:55:44;26.13;;;6.07;;
77775;SDS011;66965;43.328;6.668;2023-06-22T05:58:09;22.90;;;5.65;;
77775;SDS011;66965;43.328;6.668;2023-06-22T06:00:35;12.52;;;4.47;;
77775;SDS011;66965;43.328;6.668;2023-06-22T06:03:01;19.52;;;6.40;;
77775;SDS011;66965;43.328;6.668;2023-06-22T06:05:30;32.92;;;7.78;;
77775;SDS011;66965;43.328;6.668;2023-06-22T06:07:56;24.35;;;5.28;;
77775;SDS011;66965;43.328;6.668;2023-06-22T06:10:22;21.42;;;5.90;;
77775;SDS011;66965;43.328;6.668;2023-06-22T06:12:47;29.88;;;6.85;;
77775;SDS011;66965;43.328;6.668;2023-06-22T06:15:13;47.67;;;9.32;;
77775;SDS011;66965;43.328;6.668;2023-06-22T06:17:45;31.40;;;7.85;;
77775;SDS011;66965;43.328;6.668;2023-06-22T06:20:11;22.50;;;7.07;;
77775;SDS011;66965;43.328;6.668;2023-06-22T06:22:37;37.17;;;8.25;;
77775;SDS011;66965;43.328;6.668;2023-06-22T06:25:02;34.15;;;7.78;;
77775;SDS011;66965;43.328;6.668;2023-06-22T06:29:54;53.13;;;11.13;;
77775;SDS011;66965;43.328;6.668;2023-06-22T06:32:19;40.03;;;8.32;;
77775;SDS011;66965;43.328;6.668;2023-06-22T06:34:45;29.65;;;8.70;;
77775;SDS011;66965;43.328;6.668;2023-06-22T06:37:10;47.00;;;9.45;;
77775;SDS011;66965;43.328;6.668;2023-06-22T06:39:36;20.17;;;5.05;;
77775;SDS011;66965;43.328;6.668;2023-06-22T06:42:01;28.70;;;6.00;;
77775;SDS011;66965;43.328;6.668;2023-06-22T06:44:27;15.18;;;4.50;;
77775;SDS011;66965;43.328;6.668;2023-06-22T06:46:52;29.13;;;6.15;;
77775;SDS011;66965;43.328;6.668;2023-06-22T06:49:19;16.40;;;5.90;;
77775;SDS011;66965;43.328;6.668;2023-06-22T06:51:44;20.77;;;5.93;;
77775;SDS011;66965;43.328;6.668;2023-06-22T06:54:10;22.35;;;6.80;;
77775;SDS011;66965;43.328;6.668;2023-06-22T06:56:35;26.13;;;6.50;;
77775;SDS011;66965;43.328;6.668;2023-06-22T06:59:01;21.80;;;6.75;;
77775;SDS011;66965;43.328;6.668;2023-06-22T07:01:26;17.98;;;5.32;;
77775;SDS011;66965;43.328;6.668;2023-06-22T07:03:52;21.55;;;5.13;;
77775;SDS011;66965;43.328;6.668;2023-06-22T07:06:18;25.60;;;6.43;;
77775;SDS011;66965;43.328;6.668;2023-06-22T07:08:44;21.80;;;5.95;;
77775;SDS011;66965;43.328;6.668;2023-06-22T07:11:09;26.52;;;7.03;;
77775;SDS011;66965;43.328;6.668;2023-06-22T07:13:34;38.67;;;7.90;;
77775;SDS011;66965;43.328;6.668;2023-06-22T07:16:00;28.45;;;6.80;;
77775;SDS011;66965;43.328;6.668;2023-06-22T07:18:25;27.65;;;6.45;;
77775;SDS011;66965;43.328;6.668;2023-06-22T07:20:51;21.83;;;5.50;;
77775;SDS011;66965;43.328;6.668;2023-06-22T07:23:17;19.10;;;6.35;;
77775;SDS011;66965;43.328;6.668;2023-06-22T07:25:42;25.10;;;7.55;;
77775;SDS011;66965;43.328;6.668;2023-06-22T07:28:09;30.52;;;7.07;;
77775;SDS011;66965;43.328;6.668;2023-06-22T07:30:34;27.83;;;6.75;;
77775;SDS011;66965;43.328;6.668;2023-06-22T07:33:00;25.70;;;6.53;;
77775;SDS011;66965;43.328;6.668;2023-06-22T07:35:32;29.13;;;7.38;;
77775;SDS011;66965;43.328;6.668;2023-06-22T07:37:57;35.95;;;7.53;;
77775;SDS011;66965;43.328;6.668;2023-06-22T07:40:23;30.17;;;8.07;;
77775;SDS011;66965;43.328;6.668;2023-06-22T07:42:49;22.30;;;6.53;;
77775;SDS011;66965;43.328;6.668;2023-06-22T07:45:16;31.90;;;7.40;;
77775;SDS011;66965;43.328;6.668;2023-06-22T07:47:42;36.35;;;10.23;;
77775;SDS011;66965;43.328;6.668;2023-06-22T07:50:08;35.42;;;8.75;;
77775;SDS011;66965;43.328;6.668;2023-06-22T07:52:33;30.95;;;8.25;;
77775;SDS011;66965;43.328;6.668;2023-06-22T07:54:59;35.13;;;10.75;;
77775;SDS011;66965;43.328;6.668;2023-06-22T07:57:24;26.98;;;6.40;;
77775;SDS011;66965;43.328;6.668;2023-06-22T08:00:00;27.58;;;7.68;;
77775;SDS011;66965;43.328;6.668;2023-06-22T08:02:26;34.40;;;8.50;;
77775;SDS011;66965;43.328;6.668;2023-06-22T08:04:51;16.85;;;6.07;;
77775;SDS011;66965;43.328;6.668;2023-06-22T08:07:17;25.23;;;6.85;;
77775;SDS011;66965;43.328;6.668;2023-06-22T08:09:48;31.25;;;8.10;;
77775;SDS011;66965;43.328;6.668;2023-06-22T08:12:14;26.13;;;6.10;;
77775;SDS011;66965;43.328;6.668;2023-06-22T08:14:39;33.28;;;7.43;;
77775;SDS011;66965;43.328;6.668;2023-06-22T08:17:07;30.05;;;6.40;;
77775;SDS011;66965;43.328;6.668;2023-06-22T08:19:32;32.63;;;7.80;;
77775;SDS011;66965;43.328;6.668;2023-06-22T08:21:58;33.15;;;8.93;;
77775;SDS011;66965;43.328;6.668;2023-06-22T08:24:23;39.85;;;7.88;;
77775;SDS011;66965;43.328;6.668;2023-06-22T08:26:51;27.65;;;6.97;;
77775;SDS011;66965;43.328;6.668;2023-06-22T08:29:16;34.42;;;9.82;;
77775;SDS011;66965;43.328;6.668;2023-06-22T08:31:42;24.38;;;6.18;;
77775;SDS011;66965;43.328;6.668;2023-06-22T08:34:07;29.85;;;8.48;;
77775;SDS011;66965;43.328;6.668;2023-06-22T08:36:33;28.45;;;7.63;;
77775;SDS011;66965;43.328;6.668;2023-06-22T08:39:06;26.73;;;7.28;;
77775;SDS011;66965;43.328;6.668;2023-06-22T08:41:32;38.05;;;8.93;;
77775;SDS011;66965;43.328;6.668;2023-06-22T08:43:57;24.98;;;7.13;;
77775;SDS011;66965;43.328;6.668;2023-06-22T08:46:23;25.00;;;7.32;;
77775;SDS011;66965;43.328;6.668;2023-06-22T08:51:20;35.50;;;7.28;;
77775;SDS011;66965;43.328;6.668;2023-06-22T08:53:46;22.58;;;7.22;;
77775;SDS011;66965;43.328;6.668;2023-06-22T08:56:11;31.27;;;8.35;;
77775;SDS011;66965;43.328;6.668;2023-06-22T08:58:37;32.00;;;7.97;;
77775;SDS011;66965;43.328;6.668;2023-06-22T09:01:02;37.20;;;8.15;;
77775;SDS011;66965;43.328;6.668;2023-06-22T09:03:29;30.58;;;6.72;;
77775;SDS011;66965;43.328;6.668;2023-06-22T09:05:54;28.38;;;7.75;;
77775;SDS011;66965;43.328;6.668;2023-06-22T09:08:20;39.40;;;9.52;;
77775;SDS011;66965;43.328;6.668;2023-06-22T09:10:46;37.72;;;8.15;;
77775;SDS011;66965;43.328;6.668;2023-06-22T09:13:11;49.38;;;9.98;;
77775;SDS011;66965;43.328;6.668;2023-06-22T09:15:37;39.20;;;8.07;;
77775;SDS011;66965;43.328;6.668;2023-06-22T09:18:02;30.67;;;7.28;;
77775;SDS011;66965;43.328;6.668;2023-06-22T09:20:28;29.73;;;6.63;;
77775;SDS011;66965;43.328;6.668;2023-06-22T09:22:53;27.17;;;7.80;;
77775;SDS011;66965;43.328;6.668;2023-06-22T09:25:19;25.23;;;6.80;;
77775;SDS011;66965;43.328;6.668;2023-06-22T09:30:11;20.27;;;6.78;;
77775;SDS011;66965;43.328;6.668;2023-06-22T09:32:36;22.58;;;5.65;;
77775;SDS011;66965;43.328;6.668;2023-06-22T09:35:03;23.02;;;5.85;;
77775;SDS011;66965;43.328;6.668;2023-06-22T09:37:34;31.25;;;7.53;;
77775;SDS011;66965;43.328;6.668;2023-06-22T09:40:00;23.67;;;7.60;;
77775;SDS011;66965;43.328;6.668;2023-06-22T09:44:50;23.27;;;6.27;;
77775;SDS011;66965;43.328;6.668;2023-06-22T09:47:16;31.38;;;6.60;;
77775;SDS011;66965;43.328;6.668;2023-06-22T09:49:41;25.33;;;7.47;;
77775;SDS011;66965;43.328;6.668;2023-06-22T09:52:07;20.60;;;6.07;;
77775;SDS011;66965;43.328;6.668;2023-06-22T09:54:32;19.40;;;5.85;;
77775;SDS011;66965;43.328;6.668;2023-06-22T09:56:58;20.88;;;5.72;;
77775;SDS011;66965;43.328;6.668;2023-06-22T09:59:23;19.67;;;7.38;;
77775;SDS011;66965;43.328;6.668;2023-06-22T10:01:49;25.40;;;6.35;;
77775;SDS011;66965;43.328;6.668;2023-06-22T10:04:14;23.90;;;6.82;;
77775;SDS011;66965;43.328;6.668;2023-06-22T10:06:39;22.00;;;7.68;;
77775;SDS011;66965;43.328;6.668;2023-06-22T10:09:06;25.70;;;8.27;;
77775;SDS011;66965;43.328;6.668;2023-06-22T10:11:32;23.23;;;7.13;;
77775;SDS011;66965;43.328;6.668;2023-06-22T10:14:00;28.98;;;7.03;;
77775;SDS011;66965;43.328;6.668;2023-06-22T10:18:55;21.10;;;6.50;;
77775;SDS011;66965;43.328;6.668;2023-06-22T10:23:46;40.50;;;9.53;;
77775;SDS011;66965;43.328;6.668;2023-06-22T10:26:11;24.60;;;7.07;;
77775;SDS011;66965;43.328;6.668;2023-06-22T10:31:02;20.73;;;7.90;;
77775;SDS011;66965;43.328;6.668;2023-06-22T10:35:53;29.30;;;8.33;;
77775;SDS011;66965;43.328;6.668;2023-06-22T10:40:43;22.73;;;7.13;;
77775;SDS011;66965;43.328;6.668;2023-06-22T10:43:09;35.92;;;8.43;;
77775;SDS011;66965;43.328;6.668;2023-06-22T10:47:59;29.77;;;6.67;;
77775;SDS011;66965;43.328;6.668;2023-06-22T10:50:25;24.42;;;6.70;;
77775;SDS011;66965;43.328;6.668;2023-06-22T10:52:51;27.92;;;7.55;;
77775;SDS011;66965;43.328;6.668;2023-06-22T10:55:16;29.00;;;7.82;;
77775;SDS011;66965;43.328;6.668;2023-06-22T10:57:41;28.63;;;7.57;;
77775;SDS011;66965;43.328;6.668;2023-06-22T11:00:09;40.53;;;10.88;;
77775;SDS011;66965;43.328;6.668;2023-06-22T11:02:36;31.02;;;9.52;;
77775;SDS011;66965;43.328;6.668;2023-06-22T11:05:01;36.35;;;11.50;;
77775;SDS011;66965;43.328;6.668;2023-06-22T11:07:28;24.30;;;7.15;;
77775;SDS011;66965;43.328;6.668;2023-06-22T11:09:54;23.98;;;6.90;;
77775;SDS011;66965;43.328;6.668;2023-06-22T11:12:20;25.30;;;6.55;;
77775;SDS011;66965;43.328;6.668;2023-06-22T11:14:45;31.88;;;9.85;;
77775;SDS011;66965;43.328;6.668;2023-06-22T11:17:11;16.90;;;6.78;;
77775;SDS011;66965;43.328;6.668;2023-06-22T11:19:36;32.03;;;7.88;;
77775;SDS011;66965;43.328;6.668;2023-06-22T11:22:02;24.58;;;7.53;;
77775;SDS011;66965;43.328;6.668;2023-06-22T11:26:53;28.30;;;5.83;;
77775;SDS011;66965;43.328;6.668;2023-06-22T11:31:43;29.33;;;7.20;;
77775;SDS011;66965;43.328;6.668;2023-06-22T11:34:09;25.52;;;7.10;;
77775;SDS011;66965;43.328;6.668;2023-06-22T11:36:34;24.45;;;6.50;;
77775;SDS011;66965;43.328;6.668;2023-06-22T11:39:00;25.75;;;6.50;;
77775;SDS011;66965;43.328;6.668;2023-06-22T11:41:27;26.42;;;6.97;;
77775;SDS011;66965;43.328;6.668;2023-06-22T11:43:52;27.60;;;7.43;;
77775;SDS011;66965;43.328;6.668;2023-06-22T11:46:17;29.83;;;7.57;;
77775;SDS011;66965;43.328;6.668;2023-06-22T11:48:43;31.15;;;8.40;;
77775;SDS011;66965;43.328;6.668;2023-06-22T11:51:09;31.17;;;8.18;;
77775;SDS011;66965;43.328;6.668;2023-06-22T11:53:34;35.45;;;8.35;;
77775;SDS011;66965;43.328;6.668;2023-06-22T11:56:00;42.45;;;9.95;;
77775;SDS011;66965;43.328;6.668;2023-06-22T11:58:26;49.15;;;11.45;;
77775;SDS011;66965;43.328;6.668;2023-06-22T12:00:51;28.08;;;7.68;;
77775;SDS011;66965;43.328;6.668;2023-06-22T12:03:17;23.88;;;8.10;;
77775;SDS011;66965;43.328;6.668;2023-06-22T12:05:43;19.83;;;7.70;;
77775;SDS011;66965;43.328;6.668;2023-06-22T12:08:09;27.80;;;7.57;;
77775;SDS011;66965;43.328;6.668;2023-06-22T12:10:34;22.80;;;7.63;;
77775;SDS011;66965;43.328;6.668;2023-06-22T12:13:00;21.00;;;6.60;;
77775;SDS011;66965;43.328;6.668;2023-06-22T12:15:25;34.45;;;8.35;;
77775;SDS011;66965;43.328;6.668;2023-06-22T12:17:52;25.15;;;6.63;;
77775;SDS011;66965;43.328;6.668;2023-06-22T12:20:17;39.90;;;10.77;;
77775;SDS011;66965;43.328;6.668;2023-06-22T12:25:09;32.30;;;8.25;;
77775;SDS011;66965;43.328;6.668;2023-06-22T12:27:35;33.45;;;9.27;;
77775;SDS011;66965;43.328;6.668;2023-06-22T12:32:26;37.60;;;9.18;;
77775;SDS011;66965;43.328;6.668;2023-06-22T12:34:52;39.72;;;11.20;;
77775;SDS011;66965;43.328;6.668;2023-06-22T12:37:17;42.47;;;12.27;;
77775;SDS011;66965;43.328;6.668;2023-06-22T12:39:43;31.85;;;9.55;;
77775;SDS011;66965;43.328;6.668;2023-06-22T12:42:09;26.98;;;7.78;;
77775;SDS011;66965;43.328;6.668;2023-06-22T12:44:37;44.85;;;11.55;;
77775;SDS011;66965;43.328;6.668;2023-06-22T12:47:03;35.22;;;10.10;;
77775;SDS011;66965;43.328;6.668;2023-06-22T12:49:28;28.25;;;8.93;;
77775;SDS011;66965;43.328;6.668;2023-06-22T12:51:54;52.60;;;12.70;;
77775;SDS011;66965;43.328;6.668;2023-06-22T12:54:19;43.60;;;9.90;;
77775;SDS011;66965;43.328;6.668;2023-06-22T12:56:44;31.83;;;7.75;;
77775;SDS011;66965;43.328;6.668;2023-06-22T12:59:10;28.05;;;7.90;;
77775;SDS011;66965;43.328;6.668;2023-06-22T13:01:36;24.17;;;7.03;;
77775;SDS011;66965;43.328;6.668;2023-06-22T13:04:02;26.30;;;7.07;;
77775;SDS011;66965;43.328;6.668;2023-06-22T13:06:28;16.27;;;6.18;;
77775;SDS011;66965;43.328;6.668;2023-06-22T13:08:54;33.45;;;8.23;;
77775;SDS011;66965;43.328;6.668;2023-06-22T13:11:19;19.92;;;6.28;;
77775;SDS011;66965;43.328;6.668;2023-06-22T13:13:45;24.02;;;6.88;;
77775;SDS011;66965;43.328;6.668;2023-06-22T13:16:11;25.83;;;9.10;;
77775;SDS011;66965;43.328;6.668;2023-06-22T13:18:37;24.73;;;10.10;;
77775;SDS011;66965;43.328;6.668;2023-06-22T13:21:03;25.52;;;8.00;;
77775;SDS011;66965;43.328;6.668;2023-06-22T13:23:29;42.72;;;10.48;;
77775;SDS011;66965;43.328;6.668;2023-06-22T13:25:54;18.90;;;5.68;;
77775;SDS011;66965;43.328;6.668;2023-06-22T13:28:19;16.00;;;5.60;;
77775;SDS011;66965;43.328;6.668;2023-06-22T13:30:46;22.30;;;5.53;;
77775;SDS011;66965;43.328;6.668;2023-06-22T13:33:15;28.30;;;8.27;;
77775;SDS011;66965;43.328;6.668;2023-06-22T13:35:41;30.95;;;8.43;;
77775;SDS011;66965;43.328;6.668;2023-06-22T13:38:10;22.73;;;6.68;;
77775;SDS011;66965;43.328;6.668;2023-06-22T13:40:36;35.83;;;7.55;;
77775;SDS011;66965;43.328;6.668;2023-06-22T13:43:03;19.50;;;6.60;;
77775;SDS011;66965;43.328;6.668;2023-06-22T13:45:31;26.30;;;7.35;;
77775;SDS011;66965;43.328;6.668;2023-06-22T13:47:57;29.67;;;9.10;;
77775;SDS011;66965;43.328;6.668;2023-06-22T13:50:22;41.58;;;9.25;;
77775;SDS011;66965;43.328;6.668;2023-06-22T13:52:48;38.08;;;9.65;;
77775;SDS011;66965;43.328;6.668;2023-06-22T13:55:13;34.85;;;10.88;;
77775;SDS011;66965;43.328;6.668;2023-06-22T13:57:39;26.67;;;6.30;;
77775;SDS011;66965;43.328;6.668;2023-06-22T14:00:06;35.30;;;8.50;;
77775;SDS011;66965;43.328;6.668;2023-06-22T14:02:37;33.08;;;8.10;;
77775;SDS011;66965;43.328;6.668;2023-06-22T14:05:03;27.17;;;6.50;;
77775;SDS011;66965;43.328;6.668;2023-06-22T14:07:29;25.75;;;7.07;;
77775;SDS011;66965;43.328;6.668;2023-06-22T14:09:54;11.18;;;4.63;;
77775;SDS011;66965;43.328;6.668;2023-06-22T14:12:20;10.95;;;3.92;;
77775;SDS011;66965;43.328;6.668;2023-06-22T14:17:10;16.17;;;5.10;;
77775;SDS011;66965;43.328;6.668;2023-06-22T14:19:36;55.83;;;13.15;;
77775;SDS011;66965;43.328;6.668;2023-06-22T14:22:02;53.88;;;11.32;;
77775;SDS011;66965;43.328;6.668;2023-06-22T14:26:53;26.83;;;4.80;;
77775;SDS011;66965;43.328;6.668;2023-06-22T14:29:22;8.27;;;3.85;;
77775;SDS011;66965;43.328;6.668;2023-06-22T14:31:48;12.45;;;4.38;;
77775;SDS011;66965;43.328;6.668;2023-06-22T14:34:14;36.97;;;9.00;;
77775;SDS011;66965;43.328;6.668;2023-06-22T14:36:40;43.10;;;9.02;;
77775;SDS011;66965;43.328;6.668;2023-06-22T14:39:07;71.63;;;13.27;;
77775;SDS011;66965;43.328;6.668;2023-06-22T14:41:33;92.22;;;20.13;;
77775;SDS011;66965;43.328;6.668;2023-06-22T14:43:58;101.40;;;16.83;;
77775;SDS011;66965;43.328;6.668;2023-06-22T14:46:24;57.20;;;14.60;;
77775;SDS011;66965;43.328;6.668;2023-06-22T14:48:49;55.45;;;12.35;;
77775;SDS011;66965;43.328;6.668;2023-06-22T14:51:15;36.95;;;10.85;;
77775;SDS011;66965;43.328;6.668;2023-06-22T14:56:07;30.33;;;7.97;;
77775;SDS011;66965;43.328;6.668;2023-06-22T14:58:33;49.45;;;14.10;;
77775;SDS011;66965;43.328;6.668;2023-06-22T15:01:02;66.95;;;12.90;;
77775;SDS011;66965;43.328;6.668;2023-06-22T15:03:29;33.38;;;10.15;;
77775;SDS011;66965;43.328;6.668;2023-06-22T15:05:56;27.67;;;8.25;;
77775;SDS011;66965;43.328;6.668;2023-06-22T15:08:23;28.83;;;7.97;;
77775;SDS011;66965;43.328;6.668;2023-06-22T15:10:48;21.85;;;7.25;;
77775;SDS011;66965;43.328;6.668;2023-06-22T15:15:42;24.13;;;7.22;;
77775;SDS011;66965;43.328;6.668;2023-06-22T15:18:07;30.27;;;7.78;;
77775;SDS011;66965;43.328;6.668;2023-06-22T15:20:33;27.27;;;7.97;;
77775;SDS011;66965;43.328;6.668;2023-06-22T15:22:58;51.78;;;10.68;;
77775;SDS011;66965;43.328;6.668;2023-06-22T15:25:24;52.83;;;12.15;;
77775;SDS011;66965;43.328;6.668;2023-06-22T15:27:49;44.80;;;11.18;;
77775;SDS011;66965;43.328;6.668;2023-06-22T15:30:14;60.22;;;14.23;;
77775;SDS011;66965;43.328;6.668;2023-06-22T15:32:43;49.17;;;13.20;;